createdAt,value
2019-04-10T00:01:44.645Z,73.13
2019-04-10T00:04:13.246Z,72.00
2019-04-10T00:06:41.709Z,72.17
2019-04-10T00:09:10.598Z,68.90
2019-04-10T00:11:39.188Z,73.37
2019-04-10T00:14:08.234Z,70.40
2019-04-10T00:16:36.820Z,72.00
2019-04-10T00:19:05.240Z,69.03
2019-04-10T00:21:33.660Z,69.83
2019-04-10T00:24:02.156Z,65.13
2019-04-10T00:26:30.584Z,69.20
2019-04-10T00:29:00.138Z,66.47
2019-04-10T00:31:29.757Z,66.93
2019-04-10T00:33:58.969Z,69.37
2019-04-10T00:36:27.610Z,66.53
2019-04-10T00:38:56.027Z,64.60
2019-04-10T00:41:24.453Z,68.13
2019-04-10T00:43:52.880Z,67.37
2019-04-10T00:46:22.136Z,67.80
2019-04-10T00:48:50.589Z,64.47
2019-04-10T00:51:19.318Z,66.03
2019-04-10T00:53:47.837Z,66.27
2019-04-10T00:56:16.570Z,67.63
2019-04-10T00:58:45.769Z,64.87
2019-04-10T01:01:14.372Z,63.43
2019-04-10T01:03:43.024Z,63.00
2019-04-10T01:06:13.668Z,64.67
2019-04-10T01:08:42.764Z,71.10
2019-04-10T01:11:11.428Z,65.90
2019-04-10T01:13:39.853Z,64.70
2019-04-10T01:16:09.217Z,67.30
2019-04-10T01:18:37.797Z,62.53
2019-04-10T01:21:06.268Z,65.03
2019-04-10T01:23:35.118Z,66.07
2019-04-10T01:26:03.765Z,65.73
2019-04-10T01:28:33.143Z,61.90
2019-04-10T01:31:02.503Z,61.73
2019-04-10T01:33:31.117Z,63.60
2019-04-10T01:35:59.542Z,62.07
2019-04-10T01:38:28.022Z,62.67
2019-04-10T01:40:56.455Z,65.73
2019-04-10T01:43:24.881Z,65.73
2019-04-10T01:45:53.674Z,62.40
2019-04-10T01:48:22.149Z,61.10
2019-04-10T01:50:52.868Z,64.33
2019-04-10T01:53:21.749Z,65.03
2019-04-10T01:55:51.321Z,64.93
2019-04-10T01:58:21.474Z,62.90
2019-04-10T02:01:01.825Z,67.23
2019-04-10T02:03:30.475Z,66.10
2019-04-10T02:05:58.904Z,63.20
2019-04-10T02:08:27.338Z,63.27
2019-04-10T02:10:56.545Z,66.50
2019-04-10T02:13:25.475Z,66.90
2019-04-10T02:15:54.470Z,64.30
2019-04-10T02:18:23.480Z,67.23
2019-04-10T02:20:52.037Z,64.70
2019-04-10T02:23:20.717Z,66.73
2019-04-10T02:25:49.362Z,64.90
2019-04-10T02:28:18.611Z,64.37
2019-04-10T02:30:47.893Z,66.23
2019-04-10T02:33:17.882Z,67.53
2019-04-10T02:35:47.674Z,65.80
2019-04-10T02:38:30.938Z,65.17
2019-04-10T02:40:47.516Z,66.80
2019-04-10T02:43:16.297Z,61.87
2019-04-10T02:45:44.947Z,65.97
2019-04-10T02:48:14.898Z,63.80
2019-04-10T02:50:44.783Z,62.60
2019-04-10T02:53:15.143Z,63.80
2019-04-10T02:55:43.650Z,63.70
2019-04-10T02:58:12.171Z,65.13
2019-04-10T03:00:42.148Z,66.33
2019-04-10T03:03:12.022Z,62.53
2019-04-10T03:05:40.778Z,63.77
2019-04-10T03:08:11.013Z,63.57
2019-04-10T03:10:47.496Z,65.10
2019-04-10T03:13:11.472Z,63.10
2019-04-10T03:15:40.931Z,63.30
2019-04-10T03:18:09.487Z,63.37
2019-04-10T03:20:38.488Z,63.77
2019-04-10T03:23:07.329Z,65.60
2019-04-10T03:25:35.787Z,63.50
2019-04-10T03:28:05.080Z,64.40
2019-04-10T03:30:35.865Z,61.90
2019-04-10T03:33:10.821Z,64.30
2019-04-10T03:35:43.306Z,62.93
2019-04-10T03:38:11.981Z,62.97
2019-04-10T03:40:41.509Z,63.30
2019-04-10T03:43:10.210Z,63.97
2019-04-10T03:45:38.931Z,64.03
2019-04-10T03:48:08.440Z,62.53
2019-04-10T03:50:37.010Z,63.63
2019-04-10T03:53:05.570Z,62.50
2019-04-10T03:55:34.871Z,63.40
2019-04-10T03:58:03.415Z,64.03
2019-04-10T04:00:31.883Z,63.00
2019-04-10T04:03:00.321Z,63.37
2019-04-10T04:05:28.900Z,64.00
2019-04-10T04:07:57.391Z,65.00
2019-04-10T04:10:26.750Z,62.23
2019-04-10T04:12:55.275Z,63.23
2019-04-10T04:15:24.017Z,64.63
2019-04-10T04:17:52.695Z,64.40
2019-04-10T04:20:21.203Z,63.70
2019-04-10T04:22:49.652Z,60.00
2019-04-10T04:25:18.093Z,65.90
2019-04-10T04:27:46.508Z,61.93
2019-04-10T04:30:15.043Z,61.53
2019-04-10T04:32:44.096Z,63.63
2019-04-10T04:35:13.216Z,64.87
2019-04-10T04:37:42.238Z,63.27
2019-04-10T04:40:11.139Z,61.03
2019-04-10T04:42:40.650Z,60.87
2019-04-10T04:45:09.339Z,60.60
2019-04-10T04:47:37.755Z,63.00
2019-04-10T04:50:06.302Z,62.87
2019-04-10T04:52:34.975Z,59.73
2019-04-10T04:55:05.967Z,59.80
2019-04-10T04:57:36.503Z,60.70
2019-04-10T05:00:06.279Z,59.30
2019-04-10T05:02:35.625Z,62.57
2019-04-10T05:05:05.163Z,61.20
2019-04-10T05:07:33.595Z,60.37
2019-04-10T05:10:02.792Z,57.03
2019-04-10T05:12:31.822Z,57.73
2019-04-10T05:15:00.427Z,60.10
2019-04-10T05:17:28.867Z,58.43
2019-04-10T05:19:57.263Z,58.80
2019-04-10T05:22:26.462Z,57.67
2019-04-10T05:24:54.889Z,58.60
2019-04-10T05:27:23.315Z,59.80
2019-04-10T05:29:51.705Z,58.60
2019-04-10T05:32:21.324Z,56.30
2019-04-10T05:34:50.409Z,58.30
2019-04-10T05:37:19.184Z,56.30
2019-04-10T05:39:50.890Z,56.77
2019-04-10T05:42:17.797Z,55.93
2019-04-10T05:44:46.546Z,55.87
2019-04-10T05:47:14.983Z,53.13
2019-04-10T05:49:43.387Z,54.03
2019-04-10T05:52:12.659Z,53.43
2019-04-10T05:54:41.656Z,53.80
2019-04-10T05:57:10.376Z,51.27
2019-04-10T05:59:38.941Z,51.20
2019-04-10T06:02:10.161Z,51.47
2019-04-10T06:04:38.591Z,51.37
2019-04-10T06:07:07.004Z,51.20
2019-04-10T06:09:36.517Z,50.77
2019-04-10T06:12:05.770Z,48.10
2019-04-10T06:14:35.283Z,48.70
2019-04-10T06:17:04.252Z,47.93
2019-04-10T06:19:32.915Z,49.23
2019-04-10T06:22:01.332Z,45.70
2019-04-10T06:24:30.039Z,46.80
2019-04-10T06:26:59.606Z,45.67
2019-04-10T06:29:28.805Z,44.47
2019-04-10T06:31:57.416Z,45.43
2019-04-10T06:34:26.042Z,43.17
2019-04-10T06:36:54.502Z,42.10
2019-04-10T06:39:22.954Z,44.27
2019-04-10T06:41:51.335Z,41.87
2019-04-10T06:44:19.755Z,41.97
2019-04-10T06:46:48.608Z,43.17
2019-04-10T06:49:17.180Z,41.90
2019-04-10T06:51:45.583Z,41.80
2019-04-10T06:54:16.466Z,41.07
2019-04-10T06:56:45.404Z,41.10
2019-04-10T06:59:16.183Z,41.93
2019-04-10T07:01:51.183Z,41.97
2019-04-10T07:04:15.500Z,41.70
2019-04-10T07:06:57.319Z,40.40
2019-04-10T07:09:18.203Z,38.87
2019-04-10T07:11:47.910Z,39.43
2019-04-10T07:14:18.126Z,38.00
2019-04-10T07:16:46.873Z,38.53
2019-04-10T07:19:15.735Z,37.43
2019-04-10T07:21:44.267Z,36.80
2019-04-10T07:24:15.027Z,35.73
2019-04-10T07:26:45.945Z,34.97
2019-04-10T07:29:16.412Z,33.77
2019-04-10T07:31:43.276Z,33.80
2019-04-10T07:34:11.680Z,32.97
2019-04-10T07:36:42.104Z,34.17
2019-04-10T07:39:10.259Z,34.53
2019-04-10T07:41:39.640Z,33.40
2019-04-10T07:44:08.162Z,32.33
2019-04-10T07:46:36.604Z,33.77
2019-04-10T07:49:05.008Z,34.10
2019-04-10T07:51:34.073Z,33.93
2019-04-10T07:54:02.525Z,33.70
2019-04-10T07:56:31.167Z,32.67
2019-04-10T07:59:00.575Z,33.63
2019-04-10T08:01:29.204Z,33.70
2019-04-10T08:03:57.765Z,32.13
2019-04-10T08:06:26.181Z,32.30
2019-04-10T08:08:55.505Z,32.60
2019-04-10T08:11:24.051Z,33.17
2019-04-10T08:13:53.266Z,32.97
2019-04-10T08:16:23.213Z,32.60
2019-04-10T08:18:52.129Z,32.00
2019-04-10T08:21:21.771Z,32.00
2019-04-10T08:23:51.425Z,30.40
2019-04-10T08:26:21.284Z,31.10
2019-04-10T08:28:49.895Z,30.60
2019-04-10T08:31:19.031Z,31.20
2019-04-10T08:33:47.599Z,31.60
2019-04-10T08:36:16.137Z,31.30
2019-04-10T08:38:44.608Z,30.90
2019-04-10T08:41:13.019Z,32.23
2019-04-10T08:43:41.721Z,30.23
2019-04-10T08:46:10.864Z,30.53
2019-04-10T08:48:39.486Z,29.53
2019-04-10T08:51:08.683Z,31.53
2019-04-10T08:53:38.192Z,30.67
2019-04-10T08:56:06.723Z,29.73
2019-04-10T08:58:35.146Z,30.83
2019-04-10T09:01:05.011Z,29.10
2019-04-10T09:03:33.521Z,29.20
2019-04-10T09:06:02.884Z,29.97
2019-04-10T09:08:31.459Z,29.63
2019-04-10T09:11:00.870Z,29.57
2019-04-10T09:13:30.573Z,29.17
2019-04-10T09:16:00.337Z,30.47
2019-04-10T09:18:29.520Z,30.40
2019-04-10T09:20:59.303Z,29.00
2019-04-10T09:23:38.748Z,29.67
2019-04-10T09:25:58.070Z,28.20
2019-04-10T09:28:26.575Z,29.40
2019-04-10T09:30:55.352Z,30.10
2019-04-10T09:33:27.548Z,29.97
2019-04-10T09:35:55.101Z,29.70
2019-04-10T09:38:23.705Z,28.80
2019-04-10T09:40:53.225Z,29.17
2019-04-10T09:43:21.799Z,29.33
2019-04-10T09:45:51.513Z,29.87
2019-04-10T09:48:20.056Z,29.40
2019-04-10T09:50:48.452Z,29.50
2019-04-10T09:53:17.110Z,31.17
2019-04-10T09:55:46.830Z,29.27
2019-04-10T09:58:15.362Z,28.10
2019-04-10T10:00:43.841Z,28.40
2019-04-10T10:03:12.319Z,29.13
2019-04-10T10:05:40.719Z,28.47
2019-04-10T10:08:09.193Z,27.87
2019-04-10T10:10:38.394Z,27.43
2019-04-10T10:13:09.505Z,27.33
2019-04-10T10:15:38.090Z,27.20
2019-04-10T10:18:06.520Z,27.80
2019-04-10T10:20:37.610Z,27.10
2019-04-10T10:23:05.408Z,27.97
2019-04-10T10:25:34.043Z,27.03
2019-04-10T10:28:02.839Z,29.03
2019-04-10T10:30:31.532Z,27.40
2019-04-10T10:33:00.077Z,28.53
2019-04-10T10:35:29.329Z,26.93
2019-04-10T10:37:58.844Z,28.00
2019-04-10T10:40:27.740Z,26.43
2019-04-10T10:42:56.246Z,27.97
2019-04-10T10:45:24.993Z,28.33
2019-04-10T10:47:54.651Z,28.57
2019-04-10T10:50:23.640Z,26.77
2019-04-10T10:52:52.215Z,27.20
2019-04-10T10:55:21.287Z,28.40
2019-04-10T10:57:51.115Z,28.23
2019-04-10T11:00:21.410Z,27.27
2019-04-10T11:02:49.940Z,26.97
2019-04-10T11:05:19.065Z,26.33
2019-04-10T11:07:48.882Z,26.57
2019-04-10T11:10:22.869Z,25.97
2019-04-10T11:12:48.432Z,25.90
2019-04-10T11:15:18.535Z,25.10
2019-04-10T11:17:47.196Z,25.60
2019-04-10T11:20:17.639Z,26.83
2019-04-10T11:22:47.398Z,26.10
2019-04-10T11:25:16.023Z,24.97
2019-04-10T11:27:44.432Z,25.07
2019-04-10T11:30:13.566Z,24.33
2019-04-10T11:32:42.368Z,22.67
2019-04-10T11:35:12.958Z,24.23
2019-04-10T11:37:44.903Z,24.23
2019-04-10T11:40:14.668Z,23.60
2019-04-10T11:42:42.910Z,23.60
2019-04-10T11:45:16.190Z,23.10
2019-04-10T11:47:44.839Z,22.57
2019-04-10T11:50:17.869Z,21.90
2019-04-10T11:52:51.905Z,22.97
2019-04-10T11:55:19.964Z,23.90
2019-04-10T11:57:48.957Z,23.47
2019-04-10T12:00:20.370Z,22.03
2019-04-10T12:02:52.406Z,21.57
2019-04-10T12:05:20.129Z,21.97
2019-04-10T12:08:07.789Z,23.57
2019-04-10T12:12:49.930Z,21.73
2019-04-10T12:15:19.147Z,21.57
2019-04-10T12:17:47.556Z,20.57
2019-04-10T12:20:16.735Z,20.33
2019-04-10T12:22:46.172Z,20.80
2019-04-10T12:25:16.628Z,21.57
2019-04-10T12:27:45.360Z,19.93
2019-04-10T12:30:15.176Z,19.93
2019-04-10T12:32:43.835Z,19.93
2019-04-10T12:35:13.828Z,21.10
2019-04-10T12:37:43.348Z,21.73
2019-04-10T12:40:12.266Z,23.03
2019-04-10T12:42:40.719Z,21.80
2019-04-10T12:45:09.700Z,23.00
2019-04-10T12:47:38.115Z,23.37
2019-04-10T12:50:08.099Z,23.50
2019-04-10T12:52:36.691Z,25.80
2019-04-10T12:55:08.027Z,25.50
2019-04-10T12:57:37.087Z,22.70
2019-04-10T13:00:09.707Z,24.07
2019-04-10T13:02:38.648Z,23.40
2019-04-10T13:05:07.416Z,24.37
2019-04-10T13:07:35.996Z,23.07
2019-04-10T13:10:06.593Z,23.47
2019-04-10T13:12:35.466Z,22.87
2019-04-10T13:15:09.475Z,22.23
2019-04-10T13:17:38.606Z,22.10
2019-04-10T13:20:10.376Z,22.53
2019-04-10T13:22:38.776Z,22.37
2019-04-10T13:25:08.257Z,22.37
2019-04-10T13:27:36.903Z,22.37
2019-04-10T13:30:10.299Z,23.07
2019-04-10T13:32:38.124Z,22.73
2019-04-10T13:35:08.117Z,22.53
2019-04-10T13:37:37.819Z,23.77
2019-04-10T13:40:07.650Z,22.60
2019-04-10T13:42:37.135Z,22.47
2019-04-10T13:45:07.925Z,23.77
2019-04-10T13:47:36.602Z,23.30
2019-04-10T13:50:10.352Z,22.87
2019-04-10T13:52:40.607Z,22.23
2019-04-10T13:55:10.332Z,22.27
2019-04-10T13:57:39.969Z,22.77
2019-04-10T14:00:20.049Z,23.10
2019-04-10T14:02:48.464Z,22.10
2019-04-10T14:05:17.905Z,21.00
2019-04-10T14:07:46.458Z,22.43
2019-04-10T14:10:16.171Z,22.13
2019-04-10T14:12:44.640Z,23.80
2019-04-10T14:15:14.019Z,22.70
2019-04-10T14:17:42.500Z,24.23
2019-04-10T14:20:13.091Z,22.17
2019-04-10T14:22:44.072Z,23.10
2019-04-10T14:25:14.195Z,21.87
2019-04-10T14:27:42.672Z,21.33
2019-04-10T14:30:13.275Z,22.73
2019-04-10T14:32:41.935Z,23.17
2019-04-10T14:35:11.426Z,21.27
2019-04-10T14:37:41.214Z,21.37
2019-04-10T14:40:11.686Z,20.40
2019-04-10T14:42:40.366Z,22.27
2019-04-10T14:45:09.139Z,20.63
2019-04-10T14:47:37.723Z,21.67
2019-04-10T14:50:07.546Z,21.93
2019-04-10T14:52:37.155Z,21.03
2019-04-10T14:55:06.212Z,20.20
2019-04-10T14:57:34.951Z,20.70
2019-04-10T15:00:10.684Z,20.40
2019-04-10T15:02:39.780Z,20.07
2019-04-10T15:05:09.974Z,19.90
2019-04-10T15:07:39.431Z,21.67
2019-04-10T15:10:08.997Z,20.43
2019-04-10T15:12:37.454Z,19.10
2019-04-10T15:15:06.419Z,22.67
2019-04-10T15:17:35.033Z,21.20
2019-04-10T15:20:04.917Z,22.87
2019-04-10T15:22:33.834Z,20.57
2019-04-10T15:25:02.483Z,19.57
2019-04-10T15:27:31.005Z,18.93
2019-04-10T15:29:59.424Z,20.37
2019-04-10T15:32:27.839Z,21.40
2019-04-10T15:34:56.275Z,20.40
2019-04-10T15:37:24.926Z,21.73
2019-04-10T15:39:53.967Z,21.73
2019-04-10T15:42:22.520Z,21.70
2019-04-10T15:44:50.984Z,21.23
2019-04-10T15:47:22.562Z,21.07
2019-04-10T15:49:49.573Z,21.37
2019-04-10T15:52:18.025Z,21.23
2019-04-10T15:54:46.465Z,22.47
2019-04-10T15:57:14.871Z,22.27
2019-04-10T15:59:44.158Z,22.50
2019-04-10T16:02:13.255Z,39.33
2019-04-10T16:04:42.329Z,29.30
2019-04-10T16:07:11.918Z,22.03
2019-04-10T16:09:49.158Z,25.60
2019-04-10T16:12:18.609Z,22.33
2019-04-10T16:14:47.229Z,22.27
2019-04-10T16:17:34.844Z,21.40
2019-04-10T16:20:15.524Z,22.60
2019-04-10T16:22:46.703Z,20.60
2019-04-10T16:25:19.986Z,21.50
2019-04-10T16:27:48.495Z,23.90
2019-04-10T16:30:18.645Z,21.03
2019-04-10T16:32:47.045Z,20.70
2019-04-10T16:35:15.747Z,20.90
2019-04-10T16:37:44.279Z,21.57
2019-04-10T16:40:13.239Z,22.57
2019-04-10T16:42:41.878Z,21.27
2019-04-10T16:45:11.138Z,23.83
2019-04-10T16:47:39.557Z,23.07
2019-04-10T16:50:09.218Z,21.07
2019-04-10T16:52:38.893Z,22.57
2019-04-10T16:55:08.378Z,25.87
2019-04-10T16:57:36.855Z,29.83
2019-04-10T17:00:06.970Z,27.70
2019-04-10T17:02:36.042Z,35.97
2019-04-10T17:05:08.093Z,25.67
2019-04-10T17:07:36.744Z,23.33
2019-04-10T17:10:14.050Z,23.37
2019-04-10T17:12:38.467Z,22.77
2019-04-10T17:15:08.407Z,23.60
2019-04-10T17:17:36.864Z,24.73
2019-04-10T17:20:09.570Z,23.77
2019-04-10T17:22:43.735Z,23.87
2019-04-10T17:25:09.407Z,22.83
2019-04-10T17:27:38.068Z,24.13
2019-04-10T17:30:09.447Z,24.53
2019-04-10T17:32:38.518Z,24.70
2019-04-10T17:35:09.547Z,23.43
2019-04-10T17:37:40.231Z,23.37
2019-04-10T17:40:26.356Z,34.97
2019-04-10T17:42:44.193Z,28.47
2019-04-10T17:45:14.199Z,23.63
2019-04-10T17:47:42.947Z,22.60
2019-04-10T17:50:14.157Z,22.30
2019-04-10T17:52:43.264Z,36.27
2019-04-10T17:55:11.815Z,37.60
2019-04-10T17:57:44.600Z,24.43
2019-04-10T18:00:25.432Z,21.03
2019-04-10T18:02:54.987Z,19.73
2019-04-10T18:05:23.623Z,25.53
2019-04-10T18:07:52.407Z,20.47
2019-04-10T18:10:20.899Z,24.17
2019-04-10T18:12:49.404Z,19.67
2019-04-10T18:15:17.835Z,18.20
2019-04-10T18:17:47.159Z,20.27
2019-04-10T18:20:15.808Z,18.57
2019-04-10T18:22:44.921Z,18.17
2019-04-10T18:25:13.868Z,18.70
2019-04-10T18:27:42.858Z,18.57
2019-04-10T18:30:12.093Z,18.07
2019-04-10T18:32:40.511Z,16.07
2019-04-10T18:35:09.011Z,62.47
2019-04-10T18:37:37.420Z,19.60
2019-04-10T18:40:07.457Z,44.47
2019-04-10T18:42:37.345Z,18.67
2019-04-10T18:45:07.504Z,14.50
2019-04-10T18:47:38.083Z,14.57
2019-04-10T18:50:07.909Z,13.63
2019-04-10T18:52:37.343Z,14.67
2019-04-10T18:55:06.491Z,15.40
2019-04-10T18:57:35.731Z,14.27
2019-04-10T19:00:10.125Z,14.43
2019-04-10T19:02:57.169Z,14.43
2019-04-10T19:05:30.340Z,18.23
2019-04-10T19:07:58.793Z,14.10
2019-04-10T19:10:28.582Z,14.77
2019-04-10T19:12:57.320Z,14.03
2019-04-10T19:15:25.737Z,14.03
2019-04-10T19:17:55.180Z,13.37
2019-04-10T19:20:24.877Z,13.43
2019-04-10T19:22:53.432Z,13.43
2019-04-10T19:25:22.733Z,13.63
2019-04-10T19:27:51.261Z,12.93
2019-04-10T19:30:27.101Z,13.60
2019-04-10T19:32:55.513Z,14.47
2019-04-10T19:35:23.928Z,13.60
2019-04-10T19:37:52.934Z,14.60
2019-04-10T19:40:21.540Z,13.60
2019-04-10T19:42:49.940Z,16.00
2019-04-10T19:45:19.446Z,13.20
2019-04-10T19:47:48.148Z,13.57
2019-04-10T19:50:17.321Z,14.63
2019-04-10T19:52:46.746Z,13.53
2019-04-10T19:55:15.591Z,13.67
2019-04-10T19:57:44.115Z,17.03
2019-04-10T20:00:14.483Z,14.50
2019-04-10T20:02:43.591Z,13.50
2019-04-10T20:05:12.877Z,13.00
2019-04-10T20:07:41.404Z,13.70
2019-04-10T20:10:10.896Z,13.93
2019-04-10T20:12:40.356Z,13.20
2019-04-10T20:15:10.034Z,19.90
2019-04-10T20:17:38.550Z,13.80
2019-04-10T20:20:07.499Z,12.77
2019-04-10T20:22:36.894Z,13.57
2019-04-10T20:25:06.130Z,13.50
2019-04-10T20:27:34.705Z,12.50
2019-04-10T20:30:03.960Z,12.97
2019-04-10T20:32:32.374Z,13.07
2019-04-10T20:35:00.756Z,13.50
2019-04-10T20:37:29.214Z,12.10
2019-04-10T20:39:58.075Z,12.90
2019-04-10T20:42:26.684Z,13.83
2019-04-10T20:44:55.176Z,13.17
2019-04-10T20:47:24.601Z,12.87
2019-04-10T20:49:53.355Z,12.90
2019-04-10T20:52:22.112Z,12.90
2019-04-10T20:54:50.674Z,12.73
2019-04-10T20:57:19.424Z,13.60
2019-04-10T20:59:48.899Z,12.87
2019-04-10T21:02:18.071Z,12.33
2019-04-10T21:04:54.573Z,13.37
2019-04-10T21:07:16.905Z,12.83
2019-04-10T21:09:45.373Z,13.47
2019-04-10T21:12:17.606Z,12.80
2019-04-10T21:14:44.001Z,12.83
2019-04-10T21:17:12.488Z,12.87
2019-04-10T21:19:43.187Z,12.20
2019-04-10T21:22:11.734Z,12.53
2019-04-10T21:24:41.042Z,12.90
2019-04-10T21:27:09.804Z,12.20
2019-04-10T21:29:48.851Z,12.50
2019-04-10T21:32:24.644Z,12.43
2019-04-10T21:34:53.528Z,12.63
2019-04-10T21:37:22.214Z,12.77
2019-04-10T21:39:52.186Z,12.93
2019-04-10T21:42:23.622Z,12.43
2019-04-10T21:44:51.309Z,11.50
2019-04-10T21:47:19.840Z,11.70
2019-04-10T21:49:48.463Z,11.80
2019-04-10T21:52:17.043Z,11.60
2019-04-10T21:54:51.134Z,11.70
2019-04-10T21:57:16.056Z,11.47
2019-04-10T21:59:45.502Z,10.87
2019-04-10T22:02:15.334Z,11.50
2019-04-10T22:04:44.155Z,12.10
2019-04-10T22:07:16.775Z,12.33
2019-04-10T22:09:55.454Z,10.93
2019-04-10T22:12:31.247Z,11.13
2019-04-10T22:14:54.644Z,11.40
2019-04-10T22:17:23.125Z,11.13
2019-04-10T22:19:52.751Z,11.10
2019-04-10T22:22:22.257Z,10.73
2019-04-10T22:24:50.925Z,10.90
2019-04-10T22:27:19.330Z,10.73
2019-04-10T22:29:47.910Z,11.53
2019-04-10T22:32:16.495Z,10.97
2019-04-10T22:34:44.939Z,10.47
2019-04-10T22:37:15.500Z,10.43
2019-04-10T22:39:43.759Z,9.97
2019-04-10T22:42:13.003Z,10.83
2019-04-10T22:44:45.204Z,10.63
2019-04-10T22:47:11.586Z,11.30
2019-04-10T22:49:39.994Z,11.17
2019-04-10T22:52:08.905Z,11.07
2019-04-10T22:54:37.350Z,10.03
2019-04-10T22:57:06.916Z,11.20
2019-04-10T22:59:35.531Z,10.57
2019-04-10T23:02:09.602Z,11.00
2019-04-10T23:04:34.916Z,10.60
2019-04-10T23:07:03.955Z,11.43
2019-04-10T23:09:32.636Z,10.47
2019-04-10T23:12:02.235Z,10.63
2019-04-10T23:14:31.189Z,10.23
2019-04-10T23:17:00.186Z,10.97
2019-04-10T23:19:29.936Z,11.13
2019-04-10T23:21:58.563Z,10.07
2019-04-10T23:24:27.734Z,10.70
2019-04-10T23:26:57.487Z,11.13
2019-04-10T23:29:26.321Z,10.87
2019-04-10T23:31:54.889Z,10.17
2019-04-10T23:34:23.314Z,10.60
2019-04-10T23:36:51.796Z,10.13
2019-04-10T23:39:20.206Z,10.83
2019-04-10T23:41:50.974Z,10.50
2019-04-10T23:44:18.778Z,10.90
2019-04-10T23:46:47.437Z,11.17
2019-04-10T23:49:16.034Z,11.37
2019-04-10T23:51:45.394Z,11.40
2019-04-10T23:54:15.154Z,11.27
2019-04-10T23:56:45.066Z,11.70
2019-04-10T23:59:14.852Z,11.37
